createdAt,value
2022-08-22T00:01:35.365Z,16.47
2022-08-22T00:02:45.629Z,18.49
2022-08-22T00:02:46.732Z,17.54
2022-08-22T00:02:56.260Z,19.69
2022-08-22T00:04:10.804Z,16.47
2022-08-22T00:07:01.214Z,16.47
2022-08-22T00:09:43.022Z,16.47
2022-08-22T00:12:23.928Z,16.47
2022-08-22T00:15:01.820Z,16.46
2022-08-22T00:18:02.977Z,16.44
2022-08-22T00:20:57.208Z,16.44
2022-08-22T00:23:32.708Z,16.44
2022-08-22T00:26:10.510Z,16.44
2022-08-22T00:28:44.534Z,16.42
2022-08-22T00:31:26.458Z,16.40
2022-08-22T00:34:23.119Z,16.38
2022-08-22T00:37:02.556Z,16.37
2022-08-22T00:39:46.201Z,16.36
2022-08-22T00:42:47.215Z,16.35
2022-08-22T00:45:38.203Z,16.33
2022-08-22T00:48:28.101Z,16.30
2022-08-22T00:51:18.728Z,16.31
2022-08-22T00:53:57.208Z,16.29
2022-08-22T00:56:25.478Z,16.28
2022-08-22T00:59:23.178Z,16.27
2022-08-22T01:02:07.423Z,16.27
2022-08-22T01:04:51.231Z,16.26
2022-08-22T01:07:45.503Z,16.25
2022-08-22T01:10:55.027Z,16.24
2022-08-22T01:13:46.425Z,16.24
2022-08-22T01:16:27.334Z,16.24
2022-08-22T01:19:10.967Z,16.23
2022-08-22T01:21:51.169Z,16.23
2022-08-22T01:25:13.599Z,16.23
2022-08-22T01:28:03.126Z,16.22
2022-08-22T01:31:10.381Z,16.22
2022-08-22T01:34:05.823Z,16.24
2022-08-22T01:37:04.687Z,16.24
2022-08-22T01:40:13.403Z,16.22
2022-08-22T01:42:48.574Z,16.20
2022-08-22T01:45:38.409Z,16.21
2022-08-22T01:48:16.349Z,16.20
2022-08-22T01:50:53.613Z,16.20
2022-08-22T01:53:24.882Z,16.19
2022-08-22T01:56:17.083Z,16.20
2022-08-22T01:59:11.183Z,16.17
2022-08-22T02:02:09.883Z,16.16
2022-08-22T02:05:13.537Z,16.16
2022-08-22T02:08:18.758Z,16.15
2022-08-22T02:10:58.993Z,16.12
2022-08-22T02:13:46.573Z,16.09
2022-08-22T02:16:37.090Z,16.09
2022-08-22T02:19:14.428Z,16.09
2022-08-22T02:22:20.390Z,16.09
2022-08-22T02:24:59.772Z,16.08
2022-08-22T02:27:40.037Z,16.07
2022-08-22T02:30:12.697Z,16.04
2022-08-22T02:32:41.091Z,16.04
2022-08-22T02:35:29.172Z,16.04
2022-08-22T02:38:02.153Z,16.03
2022-08-22T02:40:35.185Z,16.02
2022-08-22T02:43:12.888Z,16.01
2022-08-22T02:46:12.162Z,16.00
2022-08-22T02:48:48.570Z,15.98
2022-08-22T02:51:21.549Z,15.97
2022-08-22T02:54:14.237Z,15.92
2022-08-22T02:57:05.040Z,15.90
2022-08-22T02:59:39.940Z,15.88
2022-08-22T03:02:30.131Z,15.86
2022-08-22T03:05:14.457Z,15.85
2022-08-22T03:07:53.453Z,15.84
2022-08-22T03:10:27.732Z,15.82
2022-08-22T03:13:17.148Z,15.80
2022-08-22T03:15:52.942Z,15.78
2022-08-22T03:19:04.724Z,15.77
2022-08-22T03:21:45.119Z,15.75
2022-08-22T03:24:34.204Z,15.73
2022-08-22T03:27:08.694Z,15.70
2022-08-22T03:29:44.116Z,15.67
2022-08-22T03:32:16.877Z,15.65
2022-08-22T03:35:09.691Z,15.64
2022-08-22T03:37:42.262Z,15.63
2022-08-22T03:40:38.517Z,15.62
2022-08-22T03:43:35.043Z,15.60
2022-08-22T03:46:19.868Z,15.59
2022-08-22T03:49:15.702Z,15.59
2022-08-22T03:52:09.196Z,15.57
2022-08-22T03:55:03.054Z,15.54
2022-08-22T03:57:40.294Z,15.53
2022-08-22T04:00:35.926Z,15.51
2022-08-22T04:03:22.984Z,15.49
2022-08-22T04:06:26.645Z,15.48
2022-08-22T04:09:22.812Z,15.46
2022-08-22T04:12:03.012Z,15.44
2022-08-22T04:15:00.949Z,15.41
2022-08-22T04:17:47.624Z,15.41
2022-08-22T04:20:38.034Z,15.37
2022-08-22T04:23:24.311Z,15.38
2022-08-22T04:26:10.732Z,15.35
2022-08-22T04:29:36.428Z,15.35
2022-08-22T04:32:15.124Z,15.33
2022-08-22T04:34:49.714Z,15.31
2022-08-22T04:37:35.000Z,15.30
2022-08-22T04:40:23.911Z,15.30
2022-08-22T04:43:03.841Z,15.28
2022-08-22T04:45:38.446Z,15.28
2022-08-22T04:48:20.440Z,15.28
2022-08-22T04:51:03.993Z,15.28
2022-08-22T04:53:49.933Z,15.27
2022-08-22T04:56:38.264Z,15.29
2022-08-22T04:59:16.817Z,15.32
2022-08-22T05:01:54.726Z,15.35
2022-08-22T05:04:25.394Z,15.38
2022-08-22T05:06:56.576Z,15.40
2022-08-22T05:09:31.293Z,15.41
2022-08-22T05:12:09.130Z,15.44
2022-08-22T05:14:55.056Z,15.46
2022-08-22T05:17:27.661Z,15.47
2022-08-22T05:20:03.088Z,15.49
2022-08-22T05:22:37.157Z,15.51
2022-08-22T05:25:11.186Z,15.53
2022-08-22T05:27:45.342Z,15.57
2022-08-22T05:30:21.808Z,15.62
2022-08-22T05:33:14.421Z,15.66
2022-08-22T05:35:55.819Z,15.70
2022-08-22T05:38:31.206Z,15.76
2022-08-22T05:41:11.871Z,15.81
2022-08-22T05:43:43.465Z,15.84
2022-08-22T05:46:26.785Z,15.89
2022-08-22T05:49:02.822Z,15.94
2022-08-22T05:51:49.984Z,16.01
2022-08-22T05:54:33.739Z,16.08
2022-08-22T05:57:23.109Z,16.14
2022-08-22T06:00:01.203Z,16.19
2022-08-22T06:02:48.539Z,16.28
2022-08-22T06:05:25.602Z,16.38
2022-08-22T06:08:01.084Z,16.46
2022-08-22T06:10:48.067Z,16.59
2022-08-22T06:13:30.456Z,16.79
2022-08-22T06:16:20.665Z,16.99
2022-08-22T06:18:51.784Z,17.19
2022-08-22T06:21:38.458Z,17.40
2022-08-22T06:24:13.163Z,17.57
2022-08-22T06:26:48.560Z,17.70
2022-08-22T06:29:44.072Z,17.81
2022-08-22T06:32:16.844Z,17.90
2022-08-22T06:35:15.871Z,18.00
2022-08-22T06:37:48.011Z,18.08
2022-08-22T06:40:18.669Z,18.14
2022-08-22T06:42:51.080Z,18.19
2022-08-22T06:45:27.978Z,18.22
2022-08-22T06:48:06.127Z,18.25
2022-08-22T06:50:38.708Z,18.28
2022-08-22T06:53:16.495Z,18.30
2022-08-22T06:55:51.381Z,18.30
2022-08-22T06:58:39.259Z,18.31
2022-08-22T07:01:22.178Z,18.31
2022-08-22T07:03:54.512Z,18.35
2022-08-22T07:06:36.758Z,18.41
2022-08-22T07:09:07.003Z,18.46
2022-08-22T07:11:41.926Z,18.46
2022-08-22T07:14:14.335Z,18.45
2022-08-22T07:16:58.444Z,18.46
2022-08-22T07:19:33.064Z,18.49
2022-08-22T07:22:37.546Z,18.49
2022-08-22T07:25:15.873Z,18.51
2022-08-22T07:28:00.614Z,18.56
2022-08-22T07:31:01.774Z,18.60
2022-08-22T07:33:31.138Z,18.63
2022-08-22T07:36:05.812Z,18.71
2022-08-22T07:38:43.957Z,18.78
2022-08-22T07:41:21.060Z,18.81
2022-08-22T07:44:16.519Z,18.92
2022-08-22T07:46:52.741Z,19.01
2022-08-22T07:49:26.359Z,19.04
2022-08-22T07:51:58.908Z,19.13
2022-08-22T07:54:54.278Z,19.23
2022-08-22T07:57:31.253Z,19.32
2022-08-22T08:00:01.666Z,19.33
2022-08-22T08:02:46.592Z,19.34
2022-08-22T08:05:17.596Z,19.29
2022-08-22T08:07:47.911Z,19.28
2022-08-22T08:10:28.678Z,19.30
2022-08-22T08:13:03.327Z,19.29
2022-08-22T08:15:35.062Z,19.33
2022-08-22T08:18:09.137Z,19.30
2022-08-22T08:20:38.038Z,19.26
2022-08-22T08:23:10.068Z,19.23
2022-08-22T08:26:17.326Z,19.24
2022-08-22T08:28:58.297Z,19.25
2022-08-22T08:31:35.583Z,19.25
2022-08-22T08:34:16.212Z,19.28
2022-08-22T08:36:44.683Z,19.32
2022-08-22T08:39:35.164Z,19.30
2022-08-22T08:43:10.671Z,19.33
2022-08-22T08:46:01.387Z,19.38
2022-08-22T08:48:55.458Z,19.40
2022-08-22T08:51:57.656Z,19.39
2022-08-22T08:54:47.331Z,19.46
2022-08-22T08:57:21.702Z,19.56
2022-08-22T08:59:53.992Z,19.67
2022-08-22T09:02:52.506Z,19.71
2022-08-22T09:05:38.447Z,19.76
2022-08-22T09:08:25.227Z,19.84
2022-08-22T09:11:12.088Z,19.93
2022-08-22T09:14:14.236Z,20.02
2022-08-22T09:17:03.434Z,20.11
2022-08-22T09:19:59.713Z,20.18
2022-08-22T09:23:03.392Z,20.28
2022-08-22T09:25:55.852Z,20.35
2022-08-22T09:28:32.400Z,20.39
2022-08-22T09:31:17.038Z,20.43
2022-08-22T09:34:23.987Z,20.43
2022-08-22T09:37:30.549Z,20.45
2022-08-22T09:40:17.241Z,20.52
2022-08-22T09:43:02.674Z,20.54
2022-08-22T09:45:40.780Z,20.55
2022-08-22T09:48:30.114Z,20.56
2022-08-22T09:51:28.702Z,20.66
2022-08-22T09:54:04.413Z,20.70
2022-08-22T09:56:32.828Z,20.77
2022-08-22T09:59:03.477Z,20.90
2022-08-22T10:01:42.223Z,20.98
2022-08-22T10:04:29.138Z,21.14
2022-08-22T10:07:23.681Z,21.30
2022-08-22T10:10:30.687Z,21.37
2022-08-22T10:13:03.954Z,21.48
2022-08-22T10:15:57.519Z,21.43
2022-08-22T10:18:44.048Z,21.38
2022-08-22T10:22:01.238Z,21.40
2022-08-22T10:24:44.270Z,21.50
2022-08-22T10:27:28.948Z,21.62
2022-08-22T10:30:25.241Z,21.74
2022-08-22T10:33:14.342Z,21.82
2022-08-22T10:36:04.914Z,21.80
2022-08-22T10:38:46.809Z,21.80
2022-08-22T10:41:41.726Z,21.79
2022-08-22T10:44:30.843Z,21.73
2022-08-22T10:47:13.655Z,21.83
2022-08-22T10:49:51.181Z,22.04
2022-08-22T10:52:37.526Z,22.11
2022-08-22T10:55:24.628Z,22.24
2022-08-22T10:58:09.852Z,22.35
2022-08-22T11:00:54.413Z,22.43
2022-08-22T11:03:38.493Z,22.52
2022-08-22T11:06:25.989Z,22.57
2022-08-22T11:09:06.444Z,22.55
2022-08-22T11:12:04.824Z,22.58
2022-08-22T11:15:05.469Z,22.66
2022-08-22T11:17:55.790Z,22.81
2022-08-22T11:20:56.981Z,22.88
2022-08-22T11:23:41.739Z,22.86
2022-08-22T11:26:47.423Z,22.91
2022-08-22T11:29:46.989Z,23.06
2022-08-22T11:32:37.996Z,23.15
2022-08-22T11:35:50.115Z,23.17
2022-08-22T11:38:43.188Z,23.20
2022-08-22T11:41:21.985Z,23.27
2022-08-22T11:43:53.491Z,23.32
2022-08-22T11:46:29.457Z,23.27
2022-08-22T11:49:31.744Z,23.30
2022-08-22T11:52:28.777Z,23.35
2022-08-22T11:55:22.370Z,23.31
2022-08-22T11:58:43.153Z,23.15
2022-08-22T12:01:17.325Z,23.05
2022-08-22T12:04:04.445Z,22.95
2022-08-22T12:06:51.539Z,22.86
2022-08-22T12:09:28.149Z,22.78
2022-08-22T12:12:12.965Z,22.75
2022-08-22T12:14:48.564Z,22.67
2022-08-22T12:17:55.973Z,22.63
2022-08-22T12:20:55.413Z,22.63
2022-08-22T12:23:50.312Z,22.79
2022-08-22T12:26:35.926Z,22.93
2022-08-22T12:29:33.443Z,22.94
2022-08-22T12:32:02.698Z,22.99
2022-08-22T12:34:44.627Z,23.09
2022-08-22T12:37:26.097Z,23.11
2022-08-22T12:40:18.149Z,23.06
2022-08-22T12:43:25.911Z,23.06
2022-08-22T12:46:19.047Z,23.20
2022-08-22T12:49:15.523Z,23.31
2022-08-22T12:51:55.899Z,23.18
2022-08-22T12:55:08.006Z,23.09
2022-08-22T12:57:46.102Z,23.03
2022-08-22T13:00:40.407Z,23.07
2022-08-22T13:03:23.312Z,23.15
2022-08-22T13:05:56.765Z,23.30
2022-08-22T13:08:44.032Z,23.45
2022-08-22T13:11:22.716Z,23.73
2022-08-22T13:13:57.657Z,24.03
2022-08-22T13:16:37.580Z,24.15
2022-08-22T13:19:14.506Z,24.11
2022-08-22T13:21:48.388Z,24.19
2022-08-22T13:24:38.227Z,24.12
2022-08-22T13:27:51.208Z,24.07
2022-08-22T13:30:37.346Z,24.10
2022-08-22T13:33:12.958Z,24.12
2022-08-22T13:36:05.293Z,24.23
2022-08-22T13:38:50.183Z,24.23
2022-08-22T13:41:24.114Z,24.16
2022-08-22T13:44:14.257Z,23.99
2022-08-22T13:47:13.153Z,23.91
2022-08-22T13:49:36.604Z,23.86
2022-08-22T13:52:32.426Z,23.90
2022-08-22T13:55:11.483Z,24.01
2022-08-22T13:57:51.983Z,24.07
2022-08-22T14:00:28.552Z,24.12
2022-08-22T14:03:14.999Z,24.13
2022-08-22T14:05:48.317Z,24.12
2022-08-22T14:08:27.406Z,24.17
2022-08-22T14:11:01.868Z,24.21
2022-08-22T14:13:41.365Z,24.21
2022-08-22T14:16:23.244Z,24.18
2022-08-22T14:18:56.592Z,24.18
2022-08-22T14:21:43.369Z,24.24
2022-08-22T14:24:25.459Z,24.25
2022-08-22T14:27:06.642Z,24.32
2022-08-22T14:29:52.673Z,24.36
2022-08-22T14:32:23.349Z,24.38
2022-08-22T14:35:23.321Z,24.30
2022-08-22T14:38:29.882Z,24.26
2022-08-22T14:41:22.212Z,24.21
2022-08-22T14:44:10.504Z,24.12
2022-08-22T14:46:56.056Z,24.00
2022-08-22T14:49:55.749Z,23.89
2022-08-22T14:52:35.558Z,23.70
2022-08-22T14:55:09.745Z,23.52
2022-08-22T14:57:46.907Z,23.44
2022-08-22T15:00:29.690Z,23.38
2022-08-22T15:03:16.323Z,23.36
2022-08-22T15:05:56.555Z,23.34
2022-08-22T15:08:34.991Z,23.29
2022-08-22T15:11:09.301Z,23.27
2022-08-22T15:13:50.694Z,23.27
2022-08-22T15:16:29.632Z,23.26
2022-08-22T15:19:01.372Z,23.22
2022-08-22T15:21:33.695Z,23.21
2022-08-22T15:24:13.854Z,23.18
2022-08-22T15:26:55.468Z,23.14
2022-08-22T15:29:29.277Z,23.16
2022-08-22T15:32:03.906Z,23.25
2022-08-22T15:34:41.986Z,23.30
2022-08-22T15:37:33.645Z,23.28
2022-08-22T15:40:12.037Z,23.28
2022-08-22T15:42:47.064Z,23.24
2022-08-22T15:45:39.362Z,23.21
2022-08-22T15:48:13.379Z,23.19
2022-08-22T15:51:25.006Z,23.19
2022-08-22T15:54:24.937Z,23.27
2022-08-22T15:56:53.865Z,23.28
2022-08-22T15:59:47.754Z,23.30
2022-08-22T16:02:27.970Z,23.34
2022-08-22T16:05:22.575Z,23.35
2022-08-22T16:07:56.941Z,23.34
2022-08-22T16:10:25.243Z,23.32
2022-08-22T16:13:08.540Z,23.25
2022-08-22T16:15:46.914Z,23.16
2022-08-22T16:18:37.132Z,23.12
2022-08-22T16:21:10.899Z,23.09
2022-08-22T16:23:46.558Z,23.11
2022-08-22T16:26:31.142Z,23.11
2022-08-22T16:28:59.557Z,23.12
2022-08-22T16:31:37.654Z,23.10
2022-08-22T16:34:18.302Z,23.09
2022-08-22T16:37:05.294Z,23.05
2022-08-22T16:39:53.575Z,23.01
2022-08-22T16:42:45.026Z,22.98
2022-08-22T16:45:34.772Z,22.96
2022-08-22T16:48:26.870Z,22.92
2022-08-22T16:51:14.530Z,22.90
2022-08-22T16:54:09.736Z,22.89
2022-08-22T16:56:55.459Z,22.86
2022-08-22T16:59:39.064Z,22.80
2022-08-22T17:02:28.159Z,22.76
2022-08-22T17:05:30.007Z,22.72
2022-08-22T17:08:26.952Z,22.70
2022-08-22T17:11:30.030Z,22.65
2022-08-22T17:14:24.321Z,22.62
2022-08-22T17:17:31.408Z,22.62
2022-08-22T17:20:18.798Z,22.60
2022-08-22T17:23:15.883Z,22.57
2022-08-22T17:26:19.210Z,22.54
2022-08-22T17:29:06.324Z,22.49
2022-08-22T17:32:11.973Z,22.43
2022-08-22T17:34:58.213Z,22.38
2022-08-22T17:38:15.754Z,22.35
2022-08-22T17:41:24.854Z,22.28
2022-08-22T17:44:19.229Z,22.22
2022-08-22T17:46:54.590Z,22.14
2022-08-22T17:49:45.241Z,22.07
2022-08-22T17:52:25.209Z,22.00
2022-08-22T17:55:27.979Z,21.96
2022-08-22T17:58:37.581Z,21.86
2022-08-22T18:01:15.250Z,21.79
2022-08-22T18:04:01.441Z,21.74
2022-08-22T18:06:37.325Z,21.70
2022-08-22T18:09:18.657Z,21.63
2022-08-22T18:12:04.926Z,21.48
2022-08-22T18:14:44.783Z,21.37
2022-08-22T18:17:35.023Z,21.28
2022-08-22T18:20:23.878Z,21.20
2022-08-22T18:23:01.001Z,21.13
2022-08-22T18:25:34.698Z,21.06
2022-08-22T18:28:10.648Z,21.01
2022-08-22T18:30:57.725Z,20.93
2022-08-22T18:33:34.007Z,20.88
2022-08-22T18:36:13.245Z,20.85
2022-08-22T18:38:49.909Z,20.80
2022-08-22T18:41:31.480Z,20.76
2022-08-22T18:44:01.085Z,20.71
2022-08-22T18:46:38.692Z,20.66
2022-08-22T18:49:15.659Z,20.63
2022-08-22T18:52:05.379Z,20.60
2022-08-22T18:54:49.785Z,20.58
2022-08-22T18:57:42.901Z,20.56
2022-08-22T19:00:16.976Z,20.53
2022-08-22T19:03:11.491Z,20.53
2022-08-22T19:06:02.038Z,20.48
2022-08-22T19:08:53.412Z,20.45
2022-08-22T19:12:19.432Z,20.43
2022-08-22T19:15:20.416Z,20.40
2022-08-22T19:17:57.728Z,20.37
2022-08-22T19:20:50.738Z,20.34
2022-08-22T19:23:43.700Z,20.28
2022-08-22T19:26:28.828Z,20.25
2022-08-22T19:29:08.787Z,20.21
2022-08-22T19:31:41.248Z,20.20
2022-08-22T19:34:30.865Z,20.18
2022-08-22T19:37:33.751Z,20.15
2022-08-22T19:40:09.603Z,20.12
2022-08-22T19:42:41.796Z,20.11
2022-08-22T19:45:29.444Z,20.08
2022-08-22T19:48:13.729Z,20.06
2022-08-22T19:50:43.263Z,20.05
2022-08-22T19:53:30.317Z,20.04
2022-08-22T19:56:04.548Z,20.02
2022-08-22T19:58:46.830Z,20.01
2022-08-22T20:01:27.695Z,20.00
2022-08-22T20:04:09.245Z,19.99
2022-08-22T20:07:24.250Z,19.99
2022-08-22T20:10:43.811Z,19.96
2022-08-22T20:13:25.348Z,19.93
2022-08-22T20:16:13.477Z,19.89
2022-08-22T20:19:09.603Z,19.86
2022-08-22T20:21:45.170Z,19.84
2022-08-22T20:24:42.932Z,19.82
2022-08-22T20:27:26.365Z,19.80
2022-08-22T20:30:02.820Z,19.77
2022-08-22T20:32:39.679Z,19.74
2022-08-22T20:35:13.511Z,19.74
2022-08-22T20:38:15.678Z,19.72
2022-08-22T20:41:27.228Z,19.70
2022-08-22T20:44:05.779Z,19.68
2022-08-22T20:46:46.719Z,19.68
2022-08-22T20:49:34.674Z,19.67
2022-08-22T20:52:27.724Z,19.66
2022-08-22T20:55:13.214Z,19.64
2022-08-22T20:57:53.404Z,19.63
2022-08-22T21:00:33.187Z,19.62
2022-08-22T21:03:30.796Z,19.61
2022-08-22T21:06:21.440Z,19.61
2022-08-22T21:09:12.544Z,19.58
2022-08-22T21:11:50.708Z,19.55
2022-08-22T21:14:25.757Z,19.51
2022-08-22T21:16:54.108Z,19.48
2022-08-22T21:19:27.992Z,19.48
2022-08-22T21:22:32.635Z,19.46
2022-08-22T21:25:01.952Z,19.43
2022-08-22T21:27:33.198Z,19.42
2022-08-22T21:30:05.953Z,19.40
2022-08-22T21:32:40.184Z,19.37
2022-08-22T21:35:21.993Z,19.35
2022-08-22T21:37:50.666Z,19.33
2022-08-22T21:40:29.016Z,19.31
2022-08-22T21:43:08.338Z,19.27
2022-08-22T21:45:39.699Z,19.25
2022-08-22T21:48:29.926Z,19.21
2022-08-22T21:51:20.716Z,19.19
2022-08-22T21:53:49.328Z,19.16
2022-08-22T21:56:32.171Z,19.15
2022-08-22T21:59:40.152Z,19.14
2022-08-22T22:02:34.324Z,19.12
2022-08-22T22:05:17.184Z,19.09
2022-08-22T22:07:47.867Z,19.08
2022-08-22T22:10:19.305Z,19.05
2022-08-22T22:12:49.246Z,19.04
2022-08-22T22:15:21.376Z,19.01
2022-08-22T22:17:50.058Z,18.99
2022-08-22T22:20:20.872Z,18.95
2022-08-22T22:22:49.821Z,18.92
2022-08-22T22:25:39.737Z,18.89
2022-08-22T22:28:13.734Z,18.84
2022-08-22T22:30:43.508Z,18.82
2022-08-22T22:33:12.321Z,18.79
2022-08-22T22:35:40.877Z,18.78
2022-08-22T22:38:09.643Z,18.72
2022-08-22T22:40:38.420Z,18.69
2022-08-22T22:43:09.135Z,18.65
2022-08-22T22:45:38.748Z,18.62
2022-08-22T22:48:09.248Z,18.59
2022-08-22T22:50:40.742Z,18.57
2022-08-22T22:53:11.583Z,18.53
2022-08-22T22:55:59.588Z,18.50
2022-08-22T22:58:29.374Z,18.48
2022-08-22T23:00:58.736Z,18.44
2022-08-22T23:03:27.179Z,18.41
2022-08-22T23:05:55.471Z,18.38
2022-08-22T23:08:23.779Z,18.35
2022-08-22T23:10:52.128Z,18.32
2022-08-22T23:13:21.517Z,18.30
2022-08-22T23:15:49.859Z,18.25
2022-08-22T23:18:18.196Z,18.23
2022-08-22T23:20:49.351Z,18.20
2022-08-22T23:23:17.708Z,18.17
2022-08-22T23:25:46.013Z,18.14
2022-08-22T23:28:14.406Z,18.09
2022-08-22T23:30:42.706Z,18.07
2022-08-22T23:33:11.099Z,18.04
2022-08-22T23:35:39.573Z,18.01
2022-08-22T23:38:07.930Z,17.98
2022-08-22T23:40:36.307Z,17.96
2022-08-22T23:43:05.783Z,17.92
2022-08-22T23:45:34.070Z,17.89
2022-08-22T23:48:02.493Z,17.88
2022-08-22T23:50:30.923Z,17.85
2022-08-22T23:52:59.319Z,17.82
2022-08-22T23:55:27.784Z,17.81
2022-08-22T23:57:56.323Z,17.78
